Time;durP1;ratioP1;P1;durP2;ratioP2;P2;SDS_P1;SDS_P2;PMS_P1;PMS_P2;Temp;Humidity;BMP_temperature;BMP_pressure;BME280_temperature;BME280_humidity;BME280_pressure;Samples;Min_cycle;Max_cycle;Signal;HPM_P1;HPM_P2
2024/01/28 00:02:22;;;;;;;12.80;7.20;;;;;;;1.71;83.93;100480.50;108765;1251;94486;-75
2024/01/28 00:04:48;;;;;;;35.00;12.20;;;;;;;1.73;84.14;100480.30;108782;1251;94402;-75
2024/01/28 00:07:15;;;;;;;10.80;6.00;;;;;;;1.73;84.21;100485.02;108824;1252;94354;-75
2024/01/28 00:09:42;;;;;;;11.30;5.90;;;;;;;1.71;84.06;100487.31;108865;1251;94813;-76
2024/01/28 00:12:10;;;;;;;13.70;4.90;;;;;;;1.68;83.94;100487.17;108784;1251;95015;-77
2024/01/28 00:14:37;;;;;;;15.20;5.20;;;;;;;1.67;84.19;100488.59;108859;1251;94567;-76
2024/01/28 00:17:04;;;;;;;7.80;4.20;;;;;;;1.67;84.23;100492.44;108781;1251;94297;-76
2024/01/28 00:19:32;;;;;;;5.90;3.70;;;;;;;1.67;84.22;100495.77;108867;1251;110207;-76
2024/01/28 00:21:58;;;;;;;;;;;;;;;1.67;84.26;100493.31;108788;1256;94372;-76
2024/01/28 00:24:25;;;;;;;9.70;4.90;;;;;;;1.66;84.54;100495.59;108818;1251;94279;-75
2024/01/28 00:26:51;;;;;;;8.90;5.10;;;;;;;1.64;84.20;100501.21;108728;1253;94879;-75
2024/01/28 00:29:19;;;;;;;7.80;4.60;;;;;;;1.63;84.52;100504.04;108855;1251;94337;-75
2024/01/28 00:31:46;;;;;;;11.00;4.90;;;;;;;1.62;84.59;100507.38;108812;1251;95491;-75
2024/01/28 00:34:12;;;;;;;10.80;4.80;;;;;;;1.63;84.41;100512.77;108783;1251;94718;-76
2024/01/28 00:36:39;;;;;;;7.30;4.50;;;;;;;1.63;84.38;100514.52;108823;1251;94247;-75
2024/01/28 00:39:05;;;;;;;7.90;3.80;;;;;;;1.61;84.30;100517.88;108891;1251;94677;-76
2024/01/28 00:41:32;;;;;;;7.90;4.20;;;;;;;1.60;84.20;100525.92;108916;1251;94422;-74
2024/01/28 00:44:02;;;;;;;11.80;4.90;;;;;;;1.60;84.37;100527.86;108762;1251;107684;-75
2024/01/28 00:46:29;;;;;;;11.30;4.10;;;;;;;1.60;84.58;100535.90;108868;1251;94572;-75
2024/01/28 00:48:55;;;;;;;8.70;4.10;;;;;;;1.56;84.43;100529.13;108817;1255;94249;-75
2024/01/28 00:51:22;;;;;;;9.90;3.40;;;;;;;1.55;84.34;100533.69;108854;1251;95558;-75
2024/01/28 00:53:48;;;;;;;8.00;3.40;;;;;;;1.50;84.60;100538.46;108833;1251;94455;-75
2024/01/28 00:56:17;;;;;;;10.60;4.50;;;;;;;1.47;84.28;100543.02;108811;1251;94236;-75
2024/01/28 00:58:45;;;;;;;11.10;5.20;;;;;;;1.47;84.37;100548.63;108835;1251;95274;-75
2024/01/28 01:01:12;;;;;;;8.10;3.30;;;;;;;1.48;84.40;100552.81;108853;1251;109753;-76
2024/01/28 01:03:38;;;;;;;12.80;3.90;;;;;;;1.47;84.24;100552.48;108805;1251;94341;-75
2024/01/28 01:06:06;;;;;;;7.30;3.60;;;;;;;1.47;84.09;100557.02;108884;1251;94584;-75
2024/01/28 01:08:33;;;;;;;9.40;4.70;;;;;;;1.47;84.16;100557.02;108764;1251;94730;-76
2024/01/28 01:11:03;;;;;;;15.10;6.40;;;;;;;1.49;84.36;100558.05;108838;1251;94238;-75
2024/01/28 01:13:32;;;;;;;15.80;5.70;;;;;;;1.51;84.23;100555.59;108820;1251;109948;-76
2024/01/28 01:15:59;;;;;;;9.80;4.70;;;;;;;1.50;84.08;100556.46;108756;1251;95348;-75
2024/01/28 01:18:26;;;;;;;13.40;4.60;;;;;;;1.49;84.19;100562.59;108813;1251;94322;-76
2024/01/28 01:20:52;;;;;;;;;;;;;;;1.47;84.27;100564.17;108825;1250;94547;-75
2024/01/28 01:23:19;;;;;;;9.20;3.70;;;;;;;1.45;84.37;100566.13;108918;1251;94728;-75
2024/01/28 01:25:46;;;;;;;10.40;4.30;;;;;;;1.42;84.20;100567.75;108856;1254;94271;-76
2024/01/28 01:28:12;;;;;;;8.00;4.10;;;;;;;1.40;84.15;100569.35;108854;1251;94475;-76
2024/01/28 01:30:39;;;;;;;;;;;;;;;1.36;84.36;100571.31;108788;1251;94679;-75
2024/01/28 01:33:06;;;;;;;7.70;4.00;;;;;;;1.31;84.29;100568.55;108817;1251;94420;-76
2024/01/28 01:35:33;;;;;;;10.20;4.50;;;;;;;1.29;84.37;100574.17;108844;1251;94482;-76
2024/01/28 01:37:59;;;;;;;10.40;3.40;;;;;;;1.28;84.30;100575.59;108791;1251;94718;-75
2024/01/28 01:40:26;;;;;;;8.20;4.30;;;;;;;1.29;84.12;100578.37;108799;1251;94512;-77
2024/01/28 01:42:53;;;;;;;10.20;5.00;;;;;;;1.28;84.38;100582.73;108832;1251;94388;-75
2024/01/28 01:45:19;;;;;;;8.70;4.20;;;;;;;1.27;84.21;100583.98;108790;1251;108487;-75
2024/01/28 01:47:46;;;;;;;8.70;4.20;;;;;;;1.27;84.13;100591.31;108873;1251;94313;-75
2024/01/28 01:50:12;;;;;;;8.70;3.50;;;;;;;1.26;84.50;100590.64;108842;1250;94224;-76
2024/01/28 01:52:41;;;;;;;9.40;4.40;;;;;;;1.25;84.58;100596.76;108845;1251;94298;-75
2024/01/28 01:55:08;;;;;;;9.80;4.00;;;;;;;1.24;84.37;100601.66;108788;1251;94623;-76
2024/01/28 01:57:39;;;;;;;9.20;3.90;;;;;;;1.22;84.45;100602.04;108807;1251;94330;-75
2024/01/28 02:00:06;;;;;;;7.90;3.80;;;;;;;1.22;84.59;100602.92;108843;1251;95277;-75
2024/01/28 02:02:33;;;;;;;6.80;3.50;;;;;;;1.19;84.55;100603.81;108770;1251;94250;-75
2024/01/28 02:04:59;;;;;;;10.30;4.40;;;;;;;1.16;84.37;100600.00;108779;1253;94248;-76
2024/01/28 02:07:26;;;;;;;13.70;4.20;;;;;;;1.18;84.38;100602.60;108817;1251;94321;-76
2024/01/28 02:09:53;;;;;;;13.10;3.70;;;;;;;1.20;84.51;100606.96;108862;1251;94514;-75
2024/01/28 02:12:19;;;;;;;;;;;;;;;1.19;84.14;100606.09;108948;1251;94314;-77
2024/01/28 02:14:46;;;;;;;11.20;3.90;;;;;;;1.18;84.43;100609.94;108862;1251;94328;-75
2024/01/28 02:17:12;;;;;;;11.20;4.10;;;;;;;1.19;84.57;100613.95;108738;1254;94272;-76
2024/01/28 02:19:39;;;;;;;10.30;3.30;;;;;;;1.18;84.38;100613.60;108869;1251;94377;-77
2024/01/28 02:22:05;;;;;;;9.90;3.80;;;;;;;1.16;84.52;100613.45;108867;1251;94521;-76
2024/01/28 02:24:32;;;;;;;8.80;3.80;;;;;;;1.16;84.71;100617.83;108914;1251;94586;-76
2024/01/28 02:26:58;;;;;;;9.40;4.40;;;;;;;1.19;84.43;100617.27;108792;1251;94306;-75
2024/01/28 02:29:25;;;;;;;7.40;4.00;;;;;;;1.22;84.41;100615.85;108836;1251;94506;-75
2024/01/28 02:31:51;;;;;;;7.30;2.50;;;;;;;1.21;84.19;100614.46;108864;1251;94259;-77
2024/01/28 02:34:18;;;;;;;9.30;3.10;;;;;;;1.21;84.31;100613.77;108890;1251;95570;-77
2024/01/28 02:36:44;;;;;;;;;;;;;;;1.21;84.25;100615.16;108848;1251;94421;-76
2024/01/28 02:39:11;;;;;;;8.30;3.30;;;;;;;1.20;84.38;100613.95;108858;1251;94568;-75
2024/01/28 02:41:37;;;;;;;8.40;4.10;;;;;;;1.20;84.33;100616.03;108835;1250;94345;-75
2024/01/28 02:44:04;;;;;;;10.30;3.80;;;;;;;1.21;84.54;100617.77;108913;1251;95767;-75
2024/01/28 02:46:30;;;;;;;9.50;4.10;;;;;;;1.21;84.41;100620.73;108812;1250;94724;-76
2024/01/28 02:48:57;;;;;;;11.20;3.90;;;;;;;1.17;84.37;100626.72;108799;1251;94436;-76
2024/01/28 02:51:23;;;;;;;;;;;;;;;1.18;84.41;100627.94;108857;1251;94651;-76
2024/01/28 02:53:50;;;;;;;8.30;3.70;;;;;;;1.15;84.31;100632.14;108788;1251;94292;-77
2024/01/28 02:56:16;;;;;;;13.30;4.30;;;;;;;1.13;84.35;100637.59;108870;1250;94408;-77
2024/01/28 02:58:43;;;;;;;17.60;4.80;;;;;;;1.10;84.45;100647.56;108811;1251;108978;-75
2024/01/28 03:01:09;;;;;;;10.50;4.30;;;;;;;1.07;84.48;100653.35;108820;1251;94319;-77
2024/01/28 03:03:36;;;;;;;;;;;;;;;1.06;84.64;100660.17;108739;1251;94656;-75
2024/01/28 03:06:03;;;;;;;10.10;3.60;;;;;;;1.04;84.51;100658.80;108797;1250;94643;-75
2024/01/28 03:08:30;;;;;;;9.90;3.40;;;;;;;1.05;84.51;100661.58;108802;1251;95187;-76
2024/01/28 03:10:56;;;;;;;8.20;3.60;;;;;;;1.04;84.51;100668.22;108841;1251;96025;-75
2024/01/28 03:13:23;;;;;;;7.80;4.10;;;;;;;1.03;84.47;100670.33;108783;1251;107958;-75
2024/01/28 03:15:52;;;;;;;7.40;3.00;;;;;;;1.00;84.57;100672.63;108846;1250;94653;-75
2024/01/28 03:18:18;;;;;;;6.80;2.90;;;;;;;1.00;84.61;100677.88;108797;1251;94317;-76
2024/01/28 03:20:45;;;;;;;6.30;3.00;;;;;;;1.00;84.44;100677.70;108801;1251;94712;-76
2024/01/28 03:23:11;;;;;;;6.30;3.50;;;;;;;1.02;84.49;100681.52;108770;1251;94773;-76
2024/01/28 03:25:38;;;;;;;10.40;3.50;;;;;;;1.03;84.34;100687.62;108809;1252;95112;-75
2024/01/28 03:28:06;;;;;;;9.00;3.40;;;;;;;1.04;84.39;100685.70;108801;1251;94266;-76
2024/01/28 03:30:34;;;;;;;8.70;2.90;;;;;;;1.05;84.28;100685.86;108732;1251;109860;-76
2024/01/28 03:33:00;;;;;;;10.10;2.90;;;;;;;1.08;84.41;100683.58;108838;1251;95117;-75
2024/01/28 03:35:27;;;;;;;10.70;3.20;;;;;;;1.09;84.31;100686.71;108822;1251;95008;-76
2024/01/28 03:37:54;;;;;;;12.40;3.20;;;;;;;1.07;84.15;100688.30;108750;1251;94574;-75
2024/01/28 03:40:21;;;;;;;7.60;3.00;;;;;;;1.06;84.47;100685.50;108728;1251;94294;-77
2024/01/28 03:42:47;;;;;;;6.40;3.10;;;;;;;1.04;84.44;100691.63;108771;1251;94435;-75
2024/01/28 03:45:14;;;;;;;7.00;3.60;;;;;;;1.05;84.56;100688.48;108904;1251;94426;-75
2024/01/28 03:47:40;;;;;;;8.90;3.00;;;;;;;1.08;84.59;100692.48;108726;1251;95510;-75
2024/01/28 03:50:11;;;;;;;6.10;2.30;;;;;;;1.09;84.34;100693.36;108853;1251;94525;-75
2024/01/28 03:52:37;;;;;;;11.10;4.10;;;;;;;1.07;84.43;100691.27;108945;1250;94371;-76
2024/01/28 03:55:04;;;;;;;;;;;;;;;1.06;84.52;100690.41;108764;1251;94339;-74
2024/01/28 03:57:30;;;;;;;4.30;2.20;;;;;;;1.04;84.53;100690.94;108889;1249;94253;-75
2024/01/28 03:59:57;;;;;;;5.90;2.80;;;;;;;1.05;84.51;100693.03;108892;1251;95116;-76
2024/01/28 04:02:23;;;;;;;9.90;3.00;;;;;;;1.05;84.49;100695.46;108832;1250;109800;-76
2024/01/28 04:04:50;;;;;;;7.90;2.60;;;;;;;1.05;84.50;100702.46;108754;1251;95555;-75
2024/01/28 04:07:17;;;;;;;10.20;2.60;;;;;;;1.06;84.38;100704.21;108798;1251;94815;-76
2024/01/28 04:09:43;;;;;;;6.80;2.30;;;;;;;1.06;84.36;100711.02;108746;1251;94273;-75
2024/01/28 04:12:10;;;;;;;8.10;2.60;;;;;;;1.09;84.52;100712.92;108912;1251;94306;-75
2024/01/28 04:14:36;;;;;;;6.40;2.50;;;;;;;1.10;84.40;100717.80;108833;1251;95373;-77
2024/01/28 04:17:03;;;;;;;6.50;2.50;;;;;;;1.11;84.27;100728.45;108783;1251;94712;-75
2024/01/28 04:19:29;;;;;;;7.00;2.90;;;;;;;1.12;84.23;100735.09;108761;1251;94606;-76
2024/01/28 04:21:56;;;;;;;6.00;2.40;;;;;;;1.15;84.31;100745.56;108881;1250;94299;-75
2024/01/28 04:24:22;;;;;;;5.50;2.50;;;;;;;1.18;84.23;100744.31;108887;1251;94669;-76
2024/01/28 04:26:49;;;;;;;7.20;2.50;;;;;;;1.19;84.14;100745.70;108784;1251;107929;-75
2024/01/28 04:29:15;;;;;;;6.80;2.50;;;;;;;1.18;84.14;100746.77;108789;1251;94413;-75
2024/01/28 04:31:42;;;;;;;10.10;2.40;;;;;;;1.17;84.11;100751.67;108773;1251;94879;-76
2024/01/28 04:34:10;;;;;;;5.70;2.10;;;;;;;1.16;83.97;100753.77;108783;1251;94565;-76
2024/01/28 04:36:36;;;;;;;3.90;1.70;;;;;;;1.16;84.08;100757.61;108732;1251;94732;-76
2024/01/28 04:39:03;;;;;;;;;;;;;;;1.17;84.28;100759.17;108913;1251;94493;-76
2024/01/28 04:41:29;;;;;;;8.10;4.10;;;;;;;1.17;83.95;100760.75;108877;1250;94513;-75
2024/01/28 04:43:56;;;;;;;9.00;3.70;;;;;;;1.18;84.13;100764.23;108923;1251;94730;-77
2024/01/28 04:46:22;;;;;;;8.60;3.20;;;;;;;1.20;84.01;100763.52;108833;1251;94741;-76
2024/01/28 04:48:49;;;;;;;7.70;2.50;;;;;;;1.22;84.09;100768.05;108911;1251;94436;-75
2024/01/28 04:51:15;;;;;;;;;;;;;;;1.25;84.20;100770.64;108881;1251;94327;-75
2024/01/28 04:53:42;;;;;;;6.60;2.40;;;;;;;1.23;83.88;100771.88;108897;1250;94393;-75
2024/01/28 04:56:10;;;;;;;;;;;;;;;1.23;83.91;100774.16;108897;1250;94571;-76
2024/01/28 04:58:36;;;;;;;6.90;2.80;;;;;;;1.25;83.94;100782.54;108852;1251;94862;-75
2024/01/28 05:01:03;;;;;;;5.80;2.60;;;;;;;1.26;83.97;100787.41;108818;1251;94766;-76
2024/01/28 05:03:30;;;;;;;5.90;2.30;;;;;;;1.26;83.82;100789.86;108949;1250;94747;-75
2024/01/28 05:05:58;;;;;;;4.20;2.20;;;;;;;1.28;84.06;100797.02;108862;1251;94646;-75
2024/01/28 05:08:25;;;;;;;5.60;2.30;;;;;;;1.31;83.99;100795.43;108849;1251;94908;-75
2024/01/28 05:10:52;;;;;;;8.00;2.60;;;;;;;1.30;83.89;100795.80;108824;1251;94528;-75
2024/01/28 05:13:19;;;;;;;12.60;2.60;;;;;;;1.28;83.80;100800.52;108804;1251;94231;-76
2024/01/28 05:15:46;;;;;;;5.50;2.20;;;;;;;1.28;83.74;100803.14;108791;1251;110629;-75
2024/01/28 05:18:12;;;;;;;11.70;2.60;;;;;;;1.27;83.58;100805.23;108833;1251;94250;-76
2024/01/28 05:20:39;;;;;;;11.60;2.20;;;;;;;1.28;83.60;100815.55;108827;1251;94650;-75
2024/01/28 05:23:06;;;;;;;5.80;2.30;;;;;;;1.31;83.79;100813.79;108807;1250;94287;-75
2024/01/28 05:25:32;;;;;;;;;;;;;;;1.33;83.57;100813.95;108881;1250;94513;-75
2024/01/28 05:27:59;;;;;;;9.20;3.60;;;;;;;1.34;83.84;100821.98;108990;1251;94454;-75
2024/01/28 05:30:25;;;;;;;6.60;2.30;;;;;;;1.35;83.69;100821.98;108757;1251;107346;-75
2024/01/28 05:32:52;;;;;;;6.90;2.70;;;;;;;1.35;83.59;100825.11;108774;1251;94352;-75
2024/01/28 05:35:18;;;;;;;4.60;2.10;;;;;;;1.35;83.61;100821.98;108815;1251;94318;-75
2024/01/28 05:37:45;;;;;;;10.20;2.80;;;;;;;1.36;83.56;100826.52;108828;1251;94315;-76
2024/01/28 05:40:12;;;;;;;9.10;3.00;;;;;;;1.35;83.53;100829.67;108963;1250;94724;-76
2024/01/28 05:42:38;;;;;;;10.60;2.70;;;;;;;1.33;83.40;100833.86;108812;1251;94221;-76
2024/01/28 05:45:05;;;;;;;;;;;;;;;1.32;83.53;100831.61;108838;1251;94341;-75
2024/01/28 05:47:32;;;;;;;7.10;2.00;;;;;;;1.31;83.46;100839.11;108805;1251;94881;-75
2024/01/28 05:49:58;;;;;;;9.40;2.50;;;;;;;1.31;83.26;100837.55;108762;1251;94620;-75
2024/01/28 05:52:25;;;;;;;11.90;2.90;;;;;;;1.32;83.23;100835.80;108842;1251;94596;-75
2024/01/28 05:54:51;;;;;;;7.00;2.70;;;;;;;1.33;83.10;100834.75;108869;1251;94521;-77
2024/01/28 05:57:18;;;;;;;7.20;3.10;;;;;;;1.33;83.02;100834.75;108836;1250;109787;-76
2024/01/28 05:59:44;;;;;;;;;;;;;;;1.35;83.22;100842.42;108810;1251;94718;-75
2024/01/28 06:02:11;;;;;;;10.00;4.00;;;;;;;1.38;83.17;100845.90;108782;1251;94379;-76
2024/01/28 06:04:37;;;;;;;6.70;2.70;;;;;;;1.38;83.01;100849.40;108747;1251;94713;-76
2024/01/28 06:07:04;;;;;;;10.00;3.40;;;;;;;1.36;83.02;100851.34;108783;1251;94620;-76
2024/01/28 06:09:31;;;;;;;7.30;3.20;;;;;;;1.37;82.91;100856.92;108769;1251;94500;-76
2024/01/28 06:11:57;;;;;;;5.50;2.70;;;;;;;1.38;83.20;100857.45;108828;1250;95487;-75
2024/01/28 06:14:24;;;;;;;8.80;2.60;;;;;;;1.40;83.17;100862.33;108813;1251;94783;-76
2024/01/28 06:16:50;;;;;;;6.60;2.90;;;;;;;1.42;82.97;100864.42;108898;1251;94373;-76
2024/01/28 06:19:17;;;;;;;8.40;2.30;;;;;;;1.43;82.81;100863.17;108880;1251;94540;-75
2024/01/28 06:21:43;;;;;;;9.20;2.60;;;;;;;1.41;82.83;100864.42;108800;1250;108541;-76
2024/01/28 06:24:10;;;;;;;6.60;2.80;;;;;;;1.42;83.09;100868.97;108789;1252;94484;-76
2024/01/28 06:26:38;;;;;;;5.00;2.80;;;;;;;1.43;83.09;100871.73;108876;1251;94497;-76
2024/01/28 06:29:05;;;;;;;11.80;4.90;;;;;;;1.44;82.82;100873.48;108783;1251;94243;-76
2024/01/28 06:31:31;;;;;;;7.90;3.50;;;;;;;1.47;82.88;100875.91;108851;1250;94811;-76
2024/01/28 06:33:58;;;;;;;8.70;3.70;;;;;;;1.48;82.89;100874.86;108806;1251;94565;-75
2024/01/28 06:36:24;;;;;;;13.80;5.50;;;;;;;1.49;82.58;100876.60;108822;1251;95225;-75
2024/01/28 06:38:51;;;;;;;18.00;6.30;;;;;;;1.51;82.84;100879.05;108812;1250;108344;-76
2024/01/28 06:41:18;;;;;;;15.60;6.30;;;;;;;1.55;82.84;100882.34;108896;1249;94584;-77
2024/01/28 06:43:44;;;;;;;8.00;3.80;;;;;;;1.58;82.82;100883.73;108827;1250;94622;-76
2024/01/28 06:46:15;;;;;;;39.70;12.60;;;;;;;1.57;82.80;100888.27;108780;1251;94221;-76
2024/01/28 06:48:42;;;;;;;37.10;12.90;;;;;;;1.59;82.89;100891.94;108800;1251;94302;-76
2024/01/28 06:51:09;;;;;;;86.60;32.10;;;;;;;1.60;82.77;100891.59;108832;1251;94309;-76
2024/01/28 06:53:36;;;;;;;47.80;18.70;;;;;;;1.63;82.69;100895.05;108809;1251;94622;-76
2024/01/28 06:56:03;;;;;;;22.30;9.50;;;;;;;1.62;82.53;100897.68;108764;1251;94555;-76
2024/01/28 06:58:29;;;;;;;23.70;7.60;;;;;;;1.62;82.52;100895.06;108782;1251;94300;-76
2024/01/28 07:00:56;;;;;;;13.00;5.10;;;;;;;1.66;82.41;100890.66;108757;1251;95394;-82
2024/01/28 07:03:23;;;;;;;;;;;;;;;1.67;82.52;100893.45;108804;1252;95420;-82
2024/01/28 07:06:01;;;;;;;9.40;3.70;;;;;;;1.67;82.79;100891.88;108763;1251;107221;-81
2024/01/28 07:08:30;;;;;;;19.80;7.70;;;;;;;1.69;82.55;100897.98;108740;1251;94302;-81
2024/01/28 07:11:09;;;;;;;76.00;28.30;;;;;;;1.72;82.71;100903.73;108714;1251;94287;-81
2024/01/28 07:13:58;;;;;;;60.20;24.70;;;;;;;1.77;82.75;100904.76;108864;1250;109377;-82
2024/01/28 07:16:49;;;;;;;43.10;17.50;;;;;;;1.81;82.30;100912.77;108757;1251;96062;-82
2024/01/28 07:19:35;;;;;;;19.40;9.40;;;;;;;1.85;82.41;100919.04;108897;1250;108133;-82
2024/01/28 07:22:18;;;;;;;25.40;10.90;;;;;;;1.84;82.39;100925.16;108933;1250;94253;-82
2024/01/28 07:25:03;;;;;;;17.90;6.50;;;;;;;1.87;82.31;100922.00;108875;1251;94336;-82
2024/01/28 07:27:46;;;;;;;30.40;11.60;;;;;;;1.92;82.19;100923.54;108816;1249;110165;-82
2024/01/28 07:30:27;;;;;;;29.40;11.60;;;;;;;1.96;82.49;100927.19;108782;1251;95530;-82
2024/01/28 07:33:01;;;;;;;49.00;17.80;;;;;;;1.99;82.25;100929.80;108732;1251;107574;-81
2024/01/28 07:35:31;;;;;;;44.40;16.00;;;;;;;1.99;82.15;100925.08;108809;1251;94276;-82
2024/01/28 07:37:57;;;;;;;24.10;7.50;;;;;;;2.02;82.45;100925.77;108776;1251;94356;-81
2024/01/28 07:40:30;;;;;;;10.20;4.40;;;;;;;2.02;82.09;100928.02;108731;1251;94281;-83
2024/01/28 07:43:08;;;;;;;11.00;4.30;;;;;;;2.00;82.42;100929.09;108722;1251;95127;-82
2024/01/28 07:45:47;;;;;;;15.10;5.50;;;;;;;2.02;82.36;100932.94;108737;1251;107930;-83
2024/01/28 07:48:19;;;;;;;17.60;5.50;;;;;;;2.01;82.06;100940.46;108768;1251;94240;-83
2024/01/28 07:50:56;;;;;;;42.70;16.00;;;;;;;2.03;82.23;100939.73;108545;1251;94687;-82
2024/01/28 07:53:30;;;;;;;53.90;17.50;;;;;;;2.08;82.19;100943.90;108615;1250;109912;-80
2024/01/28 07:56:19;;;;;;;42.00;13.60;;;;;;;2.10;82.08;100942.14;108507;1251;94315;-82
2024/01/28 07:58:53;;;;;;;54.70;15.70;;;;;;;2.12;81.93;100948.60;108521;1251;107407;-82
2024/01/28 08:01:31;;;;;;;37.40;12.30;;;;;;;2.13;82.13;100956.80;108488;1251;94486;-84
2024/01/28 08:04:29;;;;;;;46.80;16.20;;;;;;;2.17;82.37;100955.57;108457;1251;95619;-82
2024/01/28 08:07:41;;;;;;;;;;;;;;;;;;;;;
2024/01/28 08:10:34;;;;;;;32.50;11.30;;;;;;;2.20;81.88;100952.74;108652;1251;96108;-82
2024/01/28 08:13:11;;;;;;;56.30;19.10;;;;;;;2.23;81.98;100959.89;108679;1251;107797;-82
2024/01/28 08:15:57;;;;;;;80.00;30.60;;;;;;;2.26;82.02;100958.98;108746;1251;94754;-82
2024/01/28 08:18:41;;;;;;;54.10;17.70;;;;;;;2.27;82.03;100963.36;108673;1251;95241;-81
2024/01/28 08:23:55;;;;;;;51.10;16.60;;;;;;;2.30;82.03;100965.44;108869;1251;95492;-82
2024/01/28 09:03:35;;;;;;;23.80;11.80;;;;;;;2.60;81.40;100995.66;107652;1267;108134;-81
2024/01/28 10:04:15;;;;;;;;;;;;;;;;;;;;;
2024/01/28 10:16:46;;;;;;;;;;;;;;;;;;;;;
2024/01/28 10:23:45;;;;;;;28.40;9.70;;;;;;;3.40;79.78;100999.75;107466;1259;95366;-76
2024/01/28 10:30:44;;;;;;;29.60;11.00;;;;;;;3.48;79.74;101001.41;106998;1260;96285;-76
2024/01/28 10:33:31;;;;;;;17.30;8.30;;;;;;;3.52;79.59;101004.33;106567;1260;108961;-72
2024/01/28 10:36:01;;;;;;;22.30;10.70;;;;;;;3.55;79.71;101003.95;107415;1253;95496;-72
2024/01/28 10:38:45;;;;;;;15.30;6.90;;;;;;;3.53;79.29;101006.95;106488;1253;95029;-84
2024/01/28 10:44:47;;;;;;;11.30;5.10;;;;;;;3.48;78.88;101000.70;107332;1243;95612;-74
2024/01/28 10:47:28;;;;;;;15.50;5.90;;;;;;;3.42;78.84;100996.75;108197;1250;107168;-76
2024/01/28 10:50:00;;;;;;;15.10;5.60;;;;;;;3.35;78.68;101003.66;110327;1243;93329;-75
2024/01/28 10:52:51;;;;;;;;;;;;;;;;;;;;;
2024/01/28 10:56:10;;;;;;;14.40;5.60;;;;;;;3.31;78.71;101004.23;108279;1244;110240;-85
2024/01/28 11:14:54;;;;;;;;;;;;;;;;;;;;;
2024/01/28 11:18:59;;;;;;;11.40;6.70;;;;;;;3.60;77.42;101013.54;107375;1262;136754;-86
2024/01/28 11:22:48;;;;;;;;;;;;;;;;;;;;;
2024/01/28 11:34:11;;;;;;;9.10;5.30;;;;;;;3.46;76.59;101013.71;105324;1273;107554;-83
2024/01/28 12:04:52;;;;;;;14.80;7.50;;;;;;;3.80;75.94;101022.94;105266;1266;94228;-82
2024/01/28 12:07:56;;;;;;;18.90;9.40;;;;;;;3.76;76.20;101024.39;108183;1245;94744;-87
2024/01/28 12:24:38;;;;;;;13.20;5.80;;;;;;;3.48;75.83;101047.52;108494;1260;92835;-78
2024/01/28 12:32:46;;;;;;;;;;;;;;;;;;;;;
2024/01/28 12:40:49;;;;;;;;;;;;;;;;;;;;;
2024/01/28 12:49:00;;;;;;;;;;;;;;;;;;;;;
2024/01/28 13:07:46;;;;;;;13.40;8.50;;;;;;;3.77;75.66;101061.23;104284;1240;93369;-86
2024/01/28 13:12:43;;;;;;;;;;;;;;;;;;;;;
2024/01/28 13:29:45;;;;;;;;;;;;;;;;;;;;;
2024/01/28 13:33:06;;;;;;;119.90;42.50;;;;;;;3.32;75.69;101086.13;106752;1258;96198;-86
2024/01/28 13:40:08;;;;;;;;;;;;;;;;;;;;;
2024/01/28 13:43:59;;;;;;;43.40;18.30;;;;;;;3.05;75.91;101097.09;107853;1233;95275;-87
2024/01/28 13:47:50;;;;;;;61.10;22.60;;;;;;;3.05;75.97;101096.54;109775;1238;108898;-86
2024/01/28 13:52:25;;;;;;;82.20;30.00;;;;;;;2.97;75.92;101099.95;108803;1251;95574;-80
2024/01/28 13:55:29;;;;;;;102.40;37.30;;;;;;;2.96;75.99;101109.23;108034;1244;108844;-83
2024/01/28 14:02:40;;;;;;;40.50;14.20;;;;;;;2.84;76.02;101101.10;106964;1251;95235;-84
2024/01/28 14:06:17;;;;;;;;;;;;;;;;;;;;;
2024/01/28 14:14:04;;;;;;;65.80;22.10;;;;;;;2.73;76.35;101110.65;107721;1254;108995;-80
2024/01/28 14:27:04;;;;;;;;;;;;;;;;;;;;;
2024/01/28 14:30:14;;;;;;;59.60;21.70;;;;;;;2.62;76.50;101109.51;105192;1264;96097;-77
2024/01/28 14:32:40;;;;;;;55.60;22.40;;;;;;;2.57;76.52;101108.14;105462;1268;96014;-75
2024/01/28 14:45:33;;;;;;;;;;;;;;;;;;;;;
2024/01/28 15:21:03;;;;;;;23.30;10.50;;;;;;;2.28;77.64;101126.70;107572;1257;95580;-76
2024/01/28 15:23:30;;;;;;;25.80;13.40;;;;;;;2.25;77.42;101129.70;107074;1255;95293;-78
2024/01/28 15:25:56;;;;;;;28.40;14.40;;;;;;;2.26;77.66;101132.13;107633;1233;95472;-78
2024/01/28 15:28:23;;;;;;;33.90;16.90;;;;;;;2.23;77.77;101130.41;109077;1236;95215;-77
2024/01/28 15:30:55;;;;;;;38.40;19.40;;;;;;;2.18;77.84;101131.83;108432;1236;107374;-79
2024/01/28 15:33:26;;;;;;;43.60;21.30;;;;;;;2.15;77.84;101135.69;108812;1232;95738;-78
2024/01/28 15:36:00;;;;;;;46.30;23.70;;;;;;;2.14;78.07;101132.19;108134;1235;95266;-78
2024/01/28 15:38:27;;;;;;;62.00;30.50;;;;;;;2.13;77.63;101138.31;109666;1237;109045;-80
2024/01/28 15:40:53;;;;;;;;;;;;;;;2.13;77.83;101146.55;109201;1233;96180;-85
2024/01/28 15:43:20;;;;;;;35.30;17.20;;;;;;;2.14;77.97;101148.64;108228;1236;95777;-80
2024/01/28 15:45:48;;;;;;;34.30;16.50;;;;;;;2.15;78.08;101152.67;110897;1232;93526;-81
2024/01/28 15:48:17;;;;;;;38.20;20.40;;;;;;;2.12;78.18;101155.48;108368;1236;95205;-80
2024/01/28 15:50:44;;;;;;;25.10;14.50;;;;;;;2.12;78.19;101159.15;108551;1232;95195;-81
2024/01/28 15:53:14;;;;;;;28.00;17.40;;;;;;;2.11;78.02;101160.73;108364;1233;95313;-78
2024/01/28 15:55:40;;;;;;;32.60;20.90;;;;;;;2.09;78.12;101158.64;109036;1237;107079;-77
2024/01/28 15:58:07;;;;;;;30.00;18.50;;;;;;;2.10;78.25;101161.44;109589;1236;95200;-77
2024/01/28 16:00:37;;;;;;;31.40;18.00;;;;;;;2.10;77.85;101162.48;111296;1232;93193;-77
2024/01/28 16:03:04;;;;;;;29.50;18.30;;;;;;;2.09;78.00;101160.74;108465;1236;108726;-80
2024/01/28 16:05:30;;;;;;;;;;;;;;;2.11;78.16;101164.41;108860;1236;95214;-79
2024/01/28 16:07:57;;;;;;;31.60;18.60;;;;;;;2.10;78.35;101161.79;109445;1233;95255;-80
2024/01/28 16:10:23;;;;;;;26.80;19.70;;;;;;;2.12;78.19;101158.46;108445;1236;95311;-79
2024/01/28 16:12:50;;;;;;;29.70;20.80;;;;;;;2.12;78.05;101164.05;108300;1236;95325;-83
2024/01/28 16:15:17;;;;;;;32.20;21.70;;;;;;;2.13;78.12;101170.89;108401;1236;94586;-79
2024/01/28 16:17:46;;;;;;;28.40;19.50;;;;;;;2.13;78.56;101173.52;108841;1236;107363;-78
2024/01/28 16:20:12;;;;;;;26.10;18.60;;;;;;;2.13;78.12;101169.14;108248;1238;95352;-76
2024/01/28 16:22:39;;;;;;;;;;;;;;;2.14;78.22;101167.55;108613;1232;95237;-81
2024/01/28 16:25:06;;;;;;;20.70;13.90;;;;;;;2.14;78.41;101165.10;108233;1245;95319;-82
2024/01/28 16:27:32;;;;;;;19.40;11.80;;;;;;;2.14;78.47;101160.90;108558;1233;95836;-80
2024/01/28 16:29:59;;;;;;;13.60;9.60;;;;;;;2.16;78.51;101162.48;108271;1246;95356;-79
2024/01/28 16:32:25;;;;;;;13.20;7.90;;;;;;;2.16;78.38;101160.36;110452;1233;95165;-81
2024/01/28 16:34:51;;;;;;;12.30;7.50;;;;;;;2.17;78.40;101161.59;109189;1236;95240;-81
2024/01/28 16:37:18;;;;;;;11.40;7.10;;;;;;;2.17;78.38;101160.71;108760;1234;95244;-79
2024/01/28 16:39:47;;;;;;;13.00;8.70;;;;;;;2.17;78.47;101162.30;109166;1236;95208;-78
2024/01/28 16:42:15;;;;;;;12.70;8.40;;;;;;;2.17;78.22;101161.95;109356;1236;95152;-81
2024/01/28 16:44:42;;;;;;;11.30;7.80;;;;;;;2.18;78.60;101163.69;108880;1236;95373;-82
2024/01/28 16:47:11;;;;;;;12.50;8.20;;;;;;;2.19;78.79;101163.16;107858;1245;95298;-81
2024/01/28 16:49:37;;;;;;;11.10;7.50;;;;;;;2.19;78.26;101165.61;110138;1236;95763;-80
2024/01/28 16:52:05;;;;;;;17.70;9.20;;;;;;;2.19;78.29;101166.83;110049;1236;94267;-81
2024/01/28 16:54:31;;;;;;;21.60;13.30;;;;;;;2.19;78.19;101174.35;110087;1236;95155;-80
2024/01/28 16:56:58;;;;;;;23.30;14.90;;;;;;;2.18;78.42;101178.04;111278;1232;94094;-81
2024/01/28 16:59:25;;;;;;;32.30;16.60;;;;;;;2.18;78.75;101179.08;111276;1233;93338;-81
2024/01/28 17:01:54;;;;;;;33.60;17.30;;;;;;;2.21;78.79;101179.26;110492;1236;95221;-80
2024/01/28 17:04:21;;;;;;;46.80;23.70;;;;;;;2.25;78.67;101180.98;108420;1236;95260;-78
2024/01/28 17:06:47;;;;;;;69.60;30.60;;;;;;;2.27;78.59;101182.20;108228;1238;95193;-81
2024/01/28 17:09:14;;;;;;;95.80;42.70;;;;;;;2.29;78.33;101176.94;108619;1236;95153;-81